Time;durP1;ratioP1;P1;durP2;ratioP2;P2;SDS_P1;SDS_P2;PMS_P1;PMS_P2;Temp;Humidity;BMP_temperature;BMP_pressure;BME280_temperature;BME280_humidity;BME280_pressure;Samples;Min_cycle;Max_cycle;Signal;HPM_P1;HPM_P2
2023/08/22 00:01:32;;;;;;;11.43;5.37;;;;;;;17.36;100.00;101834.22;5093162;28;20024;-77
2023/08/22 00:03:57;;;;;;;8.30;4.13;;;;;;;17.33;100.00;101821.97;5092684;28;20292;-77
2023/08/22 00:09:44;;;;;;;6.03;4.28;;;;;;;17.32;100.00;101831.13;5093402;28;20592;-77
2023/08/22 00:12:09;;;;;;;10.40;4.53;;;;;;;17.35;100.00;101836.09;5075097;28;20028;-77
2023/08/22 00:14:35;;;;;;;7.70;4.65;;;;;;;17.31;100.00;101830.31;5093074;28;20077;-77
2023/08/22 00:17:00;;;;;;;10.38;5.18;;;;;;;17.20;100.00;101833.84;5092393;28;20052;-77
2023/08/22 00:22:48;;;;;;;11.77;5.15;;;;;;;17.02;100.00;101834.75;5092886;28;20590;-77
2023/08/22 00:28:35;;;;;;;7.60;4.68;;;;;;;17.00;100.00;101827.94;5092941;28;20086;-77
2023/08/22 00:34:21;;;;;;;7.57;4.93;;;;;;;16.97;100.00;101840.03;5092987;28;20273;-77
2023/08/22 00:36:47;;;;;;;9.83;5.60;;;;;;;16.96;100.00;101830.28;5074649;28;20024;-77
2023/08/22 00:39:12;;;;;;;8.65;5.47;;;;;;;16.98;100.00;101833.56;5074870;28;20277;-77
2023/08/22 00:41:38;;;;;;;10.15;5.15;;;;;;;16.92;100.00;101815.59;5092003;28;20044;-77
2023/08/22 00:44:03;;;;;;;7.88;4.97;;;;;;;16.89;100.00;101821.47;5092923;28;20464;-77
2023/08/22 00:46:29;;;;;;;9.52;5.93;;;;;;;16.83;100.00;101821.56;5092114;28;20125;-77
2023/08/22 00:48:55;;;;;;;11.95;5.97;;;;;;;16.83;100.00;101825.09;5074415;28;20036;-77
2023/08/22 00:51:21;;;;;;;11.25;5.28;;;;;;;16.81;100.00;101815.56;5092622;28;20042;-77
2023/08/22 00:53:47;;;;;;;9.23;5.50;;;;;;;16.78;100.00;101810.63;5091792;28;20052;-77
2023/08/22 00:56:12;;;;;;;8.93;5.25;;;;;;;16.77;100.00;101803.56;5092590;28;20498;-77
2023/08/22 00:58:39;;;;;;;11.00;5.85;;;;;;;16.71;100.00;101789.94;5091975;28;20020;-77
2023/08/22 01:01:04;;;;;;;7.38;5.20;;;;;;;16.74;100.00;101807.56;5091450;28;20050;-77
2023/08/22 01:07:26;;;;;;;8.90;5.47;;;;;;;16.63;100.00;101805.63;5092380;28;20062;-77
2023/08/22 01:13:24;;;;;;;14.23;5.68;;;;;;;16.52;100.00;101801.03;5092661;28;20046;-77
2023/08/22 01:15:50;;;;;;;13.82;6.28;;;;;;;16.51;100.00;101808.28;5092298;28;20032;-77
2023/08/22 01:18:18;;;;;;;9.32;5.40;;;;;;;16.40;100.00;101809.88;5091359;28;20042;-77
2023/08/22 01:20:43;;;;;;;10.77;5.38;;;;;;;16.34;100.00;101807.28;5073875;28;20028;-77
2023/08/22 01:23:09;;;;;;;8.77;6.05;;;;;;;16.27;100.00;101807.38;5073482;28;20044;-77
2023/08/22 01:25:34;;;;;;;10.85;6.10;;;;;;;16.26;100.00;101813.81;5092282;28;20023;-77
2023/08/22 01:28:32;;;;;;;10.77;6.78;;;;;;;16.23;100.00;101810.75;5074347;28;20083;-77
2023/08/22 01:34:23;;;;;;;11.05;6.65;;;;;;;16.26;100.00;101791.41;5092663;28;20438;-77
2023/08/22 01:36:52;;;;;;;14.13;7.05;;;;;;;16.24;100.00;101791.63;5073551;28;20043;-77
2023/08/22 01:39:19;;;;;;;12.93;6.32;;;;;;;16.28;100.00;101795.53;5090767;28;20024;-77
2023/08/22 01:45:06;;;;;;;12.38;5.97;;;;;;;16.26;100.00;101791.41;5092087;28;20089;-77
2023/08/22 01:47:32;;;;;;;11.50;5.93;;;;;;;16.23;100.00;101795.38;5091047;28;20416;-77
2023/08/22 01:49:57;;;;;;;11.23;6.43;;;;;;;16.19;100.00;101790.66;5073688;28;20530;-77
2023/08/22 01:52:22;;;;;;;10.83;6.73;;;;;;;16.23;100.00;101795.38;5073705;28;20361;-77
2023/08/22 01:54:49;;;;;;;17.00;7.00;;;;;;;16.27;100.00;101793.06;5090975;28;20282;-76
2023/08/22 01:57:14;;;;;;;10.77;6.85;;;;;;;16.25;100.00;101785.19;5091576;28;20319;-77
2023/08/22 01:59:40;;;;;;;12.65;7.13;;;;;;;16.30;100.00;101785.31;5072633;28;20150;-77
2023/08/22 02:05:27;;;;;;;8.35;6.93;;;;;;;16.34;100.00;101781.09;5091450;28;20124;-77
2023/08/22 02:07:52;;;;;;;10.93;7.07;;;;;;;16.36;100.00;101786.28;5073213;28;20086;-77
2023/08/22 02:10:18;;;;;;;11.20;6.77;;;;;;;16.34;100.00;101777.59;5091454;28;20270;-77
2023/08/22 02:12:43;;;;;;;11.55;7.43;;;;;;;16.30;100.00;101777.22;5089512;28;20750;-77
2023/08/22 02:15:09;;;;;;;14.80;8.40;;;;;;;16.29;100.00;101783.69;5073371;28;20165;-77
2023/08/22 02:17:34;;;;;;;13.75;8.40;;;;;;;16.26;100.00;101772.50;5090730;28;20274;-77
2023/08/22 02:19:59;;;;;;;12.67;7.73;;;;;;;16.24;100.00;101771.91;5072825;28;20040;-77
2023/08/22 02:22:25;;;;;;;11.03;8.30;;;;;;;16.26;100.00;101765.25;5091321;28;20285;-77
2023/08/22 02:24:50;;;;;;;16.20;8.50;;;;;;;16.27;100.00;101779.56;5072595;28;20650;-77
2023/08/22 02:27:15;;;;;;;12.17;8.40;;;;;;;16.29;100.00;101766.66;5091395;28;20282;-77
2023/08/22 02:33:03;;;;;;;13.70;8.43;;;;;;;16.40;100.00;101765.84;5091330;28;20281;-77
2023/08/22 02:35:28;;;;;;;10.65;8.10;;;;;;;16.43;100.00;101768.91;5091006;28;20380;-77
2023/08/22 02:37:53;;;;;;;17.50;9.25;;;;;;;16.41;100.00;101767.50;5090340;28;20043;-77
2023/08/22 02:40:18;;;;;;;11.38;8.18;;;;;;;16.35;100.00;101763.03;5090986;28;20047;-76
2023/08/22 02:46:06;;;;;;;15.00;7.65;;;;;;;16.33;100.00;101765.97;5091127;28;20074;-77
2023/08/22 02:48:31;;;;;;;12.70;7.90;;;;;;;16.30;100.00;101761.03;5090198;28;20068;-77
2023/08/22 02:50:57;;;;;;;14.60;9.10;;;;;;;16.23;100.00;101762.19;5091005;28;20274;-77
2023/08/22 02:53:22;;;;;;;11.80;8.18;;;;;;;16.17;100.00;101771.16;5090941;28;20028;-77
2023/08/22 02:59:09;;;;;;;13.95;8.23;;;;;;;16.15;100.00;101766.00;5090848;28;20277;-77
2023/08/22 03:01:35;;;;;;;13.70;8.85;;;;;;;16.14;100.00;101775.16;5089901;28;20044;-77
2023/08/22 03:04:00;;;;;;;14.67;9.83;;;;;;;16.06;100.00;101767.38;5090640;28;20333;-77
2023/08/22 03:09:47;;;;;;;12.07;8.82;;;;;;;16.10;100.00;101776.66;5091052;28;20093;-77
2023/08/22 03:12:12;;;;;;;13.07;8.10;;;;;;;16.12;100.00;101774.56;5089979;28;20055;-77
2023/08/22 03:14:37;;;;;;;10.90;7.83;;;;;;;16.02;100.00;101764.31;5090616;28;20404;-77
2023/08/22 03:20:25;;;;;;;18.92;8.57;;;;;;;15.90;100.00;101762.59;5091187;28;20047;-77
2023/08/22 03:22:50;;;;;;;13.93;8.63;;;;;;;15.85;100.00;101760.56;5091090;28;20024;-77
2023/08/22 03:25:15;;;;;;;18.27;9.50;;;;;;;15.84;100.00;101766.19;5093074;28;20040;-78
2023/08/22 03:27:41;;;;;;;14.38;9.13;;;;;;;15.79;100.00;101767.69;5094188;28;20738;-77
2023/08/22 03:30:07;;;;;;;13.23;8.27;;;;;;;15.78;100.00;101768.75;5075980;28;20361;-77
2023/08/22 03:32:32;;;;;;;15.13;9.02;;;;;;;15.78;100.00;101773.31;5093338;28;20282;-77
2023/08/22 03:34:57;;;;;;;15.43;10.17;;;;;;;15.74;100.00;101767.56;5075989;28;20039;-77
2023/08/22 03:37:23;;;;;;;17.13;10.45;;;;;;;15.65;100.00;101757.31;5093253;28;20303;-77
2023/08/22 03:39:48;;;;;;;16.67;9.47;;;;;;;15.62;100.00;101758.59;5075783;28;20026;-77
2023/08/22 03:42:13;;;;;;;16.65;9.25;;;;;;;15.59;100.00;101755.50;5093912;28;20695;-77
2023/08/22 03:44:38;;;;;;;13.60;9.07;;;;;;;15.64;100.00;101758.34;5075111;28;20067;-76
2023/08/22 03:47:04;;;;;;;13.35;8.75;;;;;;;15.62;100.00;101755.06;5093794;28;20672;-77
2023/08/22 03:49:29;;;;;;;20.00;10.00;;;;;;;15.60;100.00;101763.34;5074934;28;20032;-77
2023/08/22 03:51:54;;;;;;;13.83;10.17;;;;;;;15.53;100.00;101765.28;5093575;28;20472;-77
2023/08/22 03:54:20;;;;;;;11.30;9.50;;;;;;;15.47;100.00;101767.00;5075380;28;20270;-77
2023/08/22 03:56:45;;;;;;;15.50;10.00;;;;;;;15.47;100.00;101761.59;5092791;28;20134;-77
2023/08/22 03:59:10;;;;;;;17.73;9.70;;;;;;;15.43;100.00;101764.97;5093545;28;20270;-77
2023/08/22 04:01:36;;;;;;;12.77;10.13;;;;;;;15.35;100.00;101760.72;5092445;28;20824;-77
2023/08/22 04:04:01;;;;;;;12.30;8.73;;;;;;;15.40;100.00;101765.44;5075334;28;20274;-77
2023/08/22 04:06:26;;;;;;;16.33;10.03;;;;;;;15.40;100.00;101768.13;5093449;28;20036;-78
2023/08/22 04:08:51;;;;;;;13.98;9.57;;;;;;;15.34;100.00;101758.25;5092688;28;20377;-77
2023/08/22 04:11:17;;;;;;;13.57;8.97;;;;;;;15.34;100.00;101766.31;5075244;28;20037;-77
2023/08/22 04:13:42;;;;;;;15.27;9.23;;;;;;;15.31;100.00;101756.78;5092482;28;20282;-78
2023/08/22 04:16:08;;;;;;;14.07;9.60;;;;;;;15.22;100.00;101741.13;5075011;28;20282;-78
2023/08/22 04:21:54;;;;;;;14.32;9.07;;;;;;;15.19;100.00;101743.22;5093124;28;20446;-78
2023/08/22 04:24:20;;;;;;;16.93;10.60;;;;;;;15.22;100.00;101744.66;5093165;28;20032;-77
2023/08/22 04:30:07;;;;;;;19.60;11.52;;;;;;;15.09;100.00;101745.63;5093255;28;20177;-78
2023/08/22 04:32:32;;;;;;;18.88;11.35;;;;;;;15.09;100.00;101750.19;5092133;28;20499;-78
2023/08/22 04:34:58;;;;;;;18.05;12.52;;;;;;;15.06;100.00;101743.38;5073802;28;20031;-78
2023/08/22 04:37:23;;;;;;;20.17;12.43;;;;;;;15.06;100.00;101745.25;5092146;28;20054;-76
2023/08/22 04:39:48;;;;;;;17.88;11.25;;;;;;;15.06;100.00;101758.72;5092832;28;20020;-77
2023/08/22 04:45:36;;;;;;;17.35;11.63;;;;;;;14.98;100.00;101749.03;5093171;28;20393;-77
2023/08/22 04:48:01;;;;;;;15.98;11.65;;;;;;;15.01;100.00;101753.13;5092761;28;20032;-77
2023/08/22 04:50:29;;;;;;;16.63;11.90;;;;;;;14.96;100.00;101740.34;5091962;28;20040;-77
2023/08/22 04:52:54;;;;;;;16.85;11.27;;;;;;;14.96;100.00;101761.88;5074457;28;20020;-77
2023/08/22 04:55:20;;;;;;;17.58;10.80;;;;;;;15.01;100.00;101755.84;5092164;28;20115;-77
2023/08/22 04:57:45;;;;;;;21.55;12.80;;;;;;;15.23;100.00;101759.78;5074269;28;20036;-77
2023/08/22 05:00:11;;;;;;;20.27;12.77;;;;;;;15.45;100.00;101762.88;5092417;28;20100;-77
2023/08/22 05:05:58;;;;;;;16.38;10.73;;;;;;;15.91;100.00;101750.78;5077363;28;20047;-78
2023/08/22 05:08:23;;;;;;;13.40;10.17;;;;;;;16.04;100.00;101761.38;5091503;28;20048;-78
2023/08/22 05:10:48;;;;;;;14.98;10.13;;;;;;;16.18;100.00;101762.84;5092294;28;20280;-77
2023/08/22 05:13:14;;;;;;;16.13;12.02;;;;;;;16.39;100.00;101754.25;5092377;28;20059;-78
2023/08/22 05:15:39;;;;;;;14.85;11.18;;;;;;;16.68;100.00;101757.97;5091644;28;20047;-78
2023/08/22 05:21:26;;;;;;;15.75;11.05;;;;;;;17.29;100.00;101764.84;5092223;28;20293;-77
2023/08/22 05:27:14;;;;;;;14.82;10.75;;;;;;;18.13;100.00;101761.75;5092328;28;20566;-77
2023/08/22 05:33:01;;;;;;;11.65;9.43;;;;;;;19.12;100.00;101765.69;5092474;28;20046;-77
2023/08/22 05:38:48;;;;;;;14.80;10.45;;;;;;;19.82;100.00;101766.91;5092577;28;20051;-79
2023/08/22 05:41:13;;;;;;;22.27;10.90;;;;;;;20.16;100.00;101756.72;5073670;28;20058;-79
2023/08/22 05:50:24;;;;;;;19.42;9.32;;;;;;;21.99;100.00;101774.41;5092194;28;20400;-79
2023/08/22 05:52:50;;;;;;;17.33;8.98;;;;;;;22.30;100.00;101779.94;5091580;28;20546;-80
2023/08/22 05:55:16;;;;;;;17.45;10.50;;;;;;;22.65;100.00;101771.81;5091715;28;20520;-80
2023/08/22 05:57:41;;;;;;;14.90;9.68;;;;;;;23.06;100.00;101774.53;5090847;28;20127;-80
2023/08/22 06:00:08;;;;;;;15.23;9.53;;;;;;;23.46;100.00;101782.66;5091444;28;20086;-80
2023/08/22 06:05:55;;;;;;;12.52;8.93;;;;;;;24.67;100.00;101782.38;5091867;28;20132;-80
2023/08/22 06:08:20;;;;;;;14.20;9.50;;;;;;;25.14;100.00;101789.91;5073452;28;20103;-80
2023/08/22 06:10:46;;;;;;;9.97;8.23;;;;;;;25.42;99.84;101788.25;5090658;28;20394;-80
2023/08/22 06:13:11;;;;;;;12.20;8.40;;;;;;;25.44;99.20;101796.16;5091447;28;20099;-80
2023/08/22 06:15:36;;;;;;;13.30;9.40;;;;;;;25.55;97.86;101795.78;5090602;28;20032;-80
2023/08/22 06:18:02;;;;;;;11.85;8.70;;;;;;;25.97;95.11;101794.19;5091318;28;20024;-80
2023/08/22 06:20:27;;;;;;;12.23;8.95;;;;;;;26.39;95.11;101787.88;5072758;28;20036;-79
2023/08/22 06:22:52;;;;;;;12.40;8.57;;;;;;;26.98;90.48;101789.13;5090768;28;20552;-80
2023/08/22 06:25:18;;;;;;;13.57;9.50;;;;;;;27.57;87.99;101800.41;5091405;28;20028;-81
2023/08/22 06:27:43;;;;;;;16.25;8.85;;;;;;;27.98;84.45;101797.66;5090396;28;20756;-80
2023/08/22 06:33:30;;;;;;;11.93;8.52;;;;;;;29.11;77.64;101791.94;5091415;28;20051;-81
2023/08/22 06:35:55;;;;;;;10.20;8.30;;;;;;;29.62;75.73;101798.03;5072951;28;20028;-81
2023/08/22 06:38:20;;;;;;;12.20;9.20;;;;;;;29.70;72.89;101794.50;5090570;28;20459;-80
2023/08/22 06:40:45;;;;;;;12.33;9.37;;;;;;;29.90;73.86;101800.22;5090917;28;20052;-80
2023/08/22 06:43:11;;;;;;;9.60;8.07;;;;;;;30.57;72.22;101814.75;5091288;28;20043;-81
2023/08/22 06:45:36;;;;;;;13.65;8.98;;;;;;;30.96;67.28;101811.81;5090466;28;20120;-81
2023/08/22 06:48:01;;;;;;;15.23;9.10;;;;;;;31.37;67.12;101813.16;5091183;28;20026;-81
2023/08/22 06:50:27;;;;;;;12.40;9.82;;;;;;;31.53;64.74;101818.97;5072130;28;20528;-81
2023/08/22 06:52:52;;;;;;;12.70;9.55;;;;;;;31.43;64.42;101822.91;5091135;28;20040;-81
2023/08/22 06:55:17;;;;;;;10.67;8.53;;;;;;;31.34;64.23;101822.13;5073066;28;20032;-81
2023/08/22 06:57:43;;;;;;;10.77;8.03;;;;;;;31.26;63.34;101829.31;5072586;28;20118;-81
2023/08/22 07:00:15;;;;;;;9.27;7.83;;;;;;;31.41;61.48;101836.25;5076286;28;20666;-81
2023/08/22 07:02:41;;;;;;;11.50;7.57;;;;;;;31.66;58.29;101827.03;5075710;28;20282;-82
2023/08/22 07:08:28;;;;;;;13.35;8.50;;;;;;;33.05;54.35;101835.16;5094271;28;20038;-81
2023/08/22 07:11:03;;;;;;;9.98;6.43;;;;;;;33.71;54.89;101837.78;5094533;28;20028;-80
2023/08/22 07:13:30;;;;;;;10.27;5.88;;;;;;;34.06;46.51;101845.66;5094521;28;20115;-81
2023/08/22 07:15:55;;;;;;;9.05;5.00;;;;;;;33.09;46.87;101844.41;5093423;28;20047;-81
2023/08/22 07:18:21;;;;;;;8.90;5.40;;;;;;;31.91;49.69;101843.84;5094418;28;20024;-81
2023/08/22 07:20:46;;;;;;;9.73;5.50;;;;;;;32.32;49.92;101849.47;5093446;28;20056;-81
2023/08/22 07:23:12;;;;;;;7.82;4.68;;;;;;;32.90;49.15;101850.47;5094241;28;20028;-81
2023/08/22 07:25:38;;;;;;;7.47;4.35;;;;;;;33.40;46.51;101851.41;5094169;28;20028;-81
2023/08/22 07:28:04;;;;;;;7.07;4.70;;;;;;;33.12;46.21;101845.69;5093371;28;20470;-80
2023/08/22 07:30:29;;;;;;;9.20;5.70;;;;;;;32.88;48.38;101841.66;5093984;28;20480;-81
2023/08/22 07:32:54;;;;;;;9.27;4.93;;;;;;;33.22;46.70;101843.25;5093236;28;20093;-81
2023/08/22 07:35:19;;;;;;;8.65;4.70;;;;;;;33.74;45.77;101833.50;5094073;28;20024;-81
2023/08/22 07:37:45;;;;;;;6.83;4.93;;;;;;;34.55;44.87;101834.44;5093944;28;20043;-81
2023/08/22 07:40:11;;;;;;;8.23;4.47;;;;;;;34.92;44.40;101835.09;5092924;28;20048;-80
2023/08/22 07:42:36;;;;;;;8.75;4.95;;;;;;;35.04;43.28;101847.00;5093786;28;20024;-81
2023/08/22 07:45:03;;;;;;;13.37;5.47;;;;;;;35.06;43.10;101843.84;5092962;28;20047;-81
2023/08/22 07:47:29;;;;;;;8.90;5.30;;;;;;;34.94;42.91;101841.94;5093744;28;20634;-80
2023/08/22 07:49:54;;;;;;;7.63;5.15;;;;;;;34.84;43.13;101839.69;5093140;28;20107;-81
2023/08/22 07:52:20;;;;;;;8.87;6.00;;;;;;;34.03;44.87;101840.81;5075499;28;20067;-81
2023/08/22 07:54:45;;;;;;;10.90;6.37;;;;;;;33.19;45.60;101832.84;5093964;28;20073;-80
2023/08/22 07:57:11;;;;;;;8.70;5.88;;;;;;;32.83;47.87;101841.09;5093069;28;20082;-80
2023/08/22 07:59:37;;;;;;;10.45;6.13;;;;;;;32.38;49.02;101836.22;5093609;28;20024;-80
2023/08/22 08:02:04;;;;;;;11.07;5.47;;;;;;;31.45;50.81;101839.97;5092530;28;20538;-80
2023/08/22 08:04:30;;;;;;;13.10;6.60;;;;;;;30.57;53.37;101840.41;5093444;28;20028;-81
2023/08/22 08:06:55;;;;;;;9.30;5.85;;;;;;;29.80;56.32;101835.59;5093372;28;20071;-80
2023/08/22 08:09:21;;;;;;;9.63;5.53;;;;;;;29.27;57.42;101834.50;5091457;28;20064;-80
2023/08/22 08:11:46;;;;;;;9.07;5.90;;;;;;;28.97;57.66;101835.31;5074893;28;20032;-80
2023/08/22 08:14:11;;;;;;;9.03;5.93;;;;;;;28.85;59.08;101837.81;5074487;28;20842;-80
2023/08/22 08:16:37;;;;;;;13.95;6.80;;;;;;;28.53;59.64;101839.63;5075310;28;20020;-80
2023/08/22 08:19:03;;;;;;;13.68;6.53;;;;;;;28.16;62.50;101843.47;5093100;28;20111;-80
2023/08/22 08:21:28;;;;;;;9.68;6.13;;;;;;;27.87;62.80;101848.50;5092402;28;20400;-80
2023/08/22 08:27:15;;;;;;;11.95;6.82;;;;;;;27.54;67.35;101843.06;5093091;28;20043;-80
2023/08/22 08:29:40;;;;;;;9.82;6.55;;;;;;;27.42;68.03;101840.78;5093065;28;20036;-80
2023/08/22 08:32:06;;;;;;;8.80;6.13;;;;;;;27.39;69.04;101841.41;5092165;28;20040;-80
2023/08/22 08:34:31;;;;;;;12.80;6.63;;;;;;;27.27;67.79;101854.81;5092959;28;20031;-81
2023/08/22 08:36:56;;;;;;;11.60;5.90;;;;;;;27.25;67.60;101856.25;5092912;28;20032;-80
2023/08/22 08:39:22;;;;;;;10.67;5.13;;;;;;;27.41;67.61;101850.16;5092096;28;20074;-80
2023/08/22 08:42:04;;;;;;;11.17;5.47;;;;;;;27.45;67.62;101853.91;5092832;28;20411;-80
2023/08/22 08:44:33;;;;;;;11.68;6.72;;;;;;;27.27;66.91;101846.56;5074178;28;20639;-80
2023/08/22 08:46:59;;;;;;;9.77;5.70;;;;;;;27.26;68.89;101842.19;5074534;28;20514;-80
2023/08/22 08:49:25;;;;;;;11.15;5.57;;;;;;;27.44;69.09;101840.47;5092068;28;20063;-81
2023/08/22 08:51:51;;;;;;;9.05;5.60;;;;;;;27.70;67.37;101846.34;5074570;28;20036;-80
2023/08/22 08:54:21;;;;;;;11.80;5.75;;;;;;;27.69;66.30;101848.28;5092664;28;20086;-80
2023/08/22 08:56:46;;;;;;;14.07;7.22;;;;;;;27.73;66.37;101849.28;5091803;28;20064;-79
2023/08/22 08:59:11;;;;;;;15.67;6.97;;;;;;;27.68;67.17;101848.59;5092708;28;20059;-80
2023/08/22 09:01:41;;;;;;;11.70;6.63;;;;;;;27.54;68.32;101858.72;5073545;28;20479;-80
2023/08/22 09:04:07;;;;;;;13.60;7.82;;;;;;;27.26;68.72;101866.09;5092586;28;20111;-80
2023/08/22 09:06:32;;;;;;;13.23;7.63;;;;;;;26.98;69.58;101854.19;5092533;28;20483;-80
2023/08/22 09:09:08;;;;;;;10.57;7.43;;;;;;;26.91;70.63;101843.59;5091634;28;20377;-80
2023/08/22 09:11:34;;;;;;;13.88;8.02;;;;;;;26.81;70.20;101850.06;5092645;28;20115;-81
2023/08/22 09:13:59;;;;;;;13.38;7.95;;;;;;;26.89;71.08;101854.06;5091607;28;20048;-80
2023/08/22 09:16:26;;;;;;;13.25;8.25;;;;;;;26.96;72.26;101856.44;5074129;28;20020;-80
2023/08/22 09:18:51;;;;;;;12.82;7.47;;;;;;;26.87;72.05;101850.78;5092366;28;20036;-82
2023/08/22 09:21:17;;;;;;;12.93;7.60;;;;;;;26.71;72.51;101855.72;5091035;28;20093;-80
2023/08/22 09:23:42;;;;;;;10.80;7.68;;;;;;;26.85;73.59;101842.84;5092257;28;20028;-80
2023/08/22 09:26:11;;;;;;;18.55;8.23;;;;;;;26.92;73.72;101850.72;5091304;28;20063;-80
2023/08/22 09:28:40;;;;;;;14.52;8.77;;;;;;;26.90;75.42;101855.69;5092111;28;20472;-82
2023/08/22 09:31:05;;;;;;;13.57;9.57;;;;;;;26.69;74.40;101854.38;5091325;28;20408;-80
2023/08/22 09:33:44;;;;;;;16.33;10.20;;;;;;;26.66;74.82;101854.97;5092149;28;20034;-79
2023/08/22 09:36:10;;;;;;;55.30;13.80;;;;;;;26.67;77.09;101857.41;5092239;28;20278;-80
2023/08/22 09:38:53;;;;;;;18.40;10.48;;;;;;;27.15;73.89;101851.72;5091169;28;20046;-79
2023/08/22 09:41:27;;;;;;;14.40;8.85;;;;;;;26.84;72.32;101854.94;5091930;28;20119;-81
2023/08/22 09:43:54;;;;;;;18.45;9.25;;;;;;;26.54;72.59;101852.66;5091211;28;20047;-79
2023/08/22 09:46:23;;;;;;;15.68;9.18;;;;;;;26.43;71.80;101851.19;5092046;28;20031;-79
2023/08/22 09:48:50;;;;;;;15.38;8.60;;;;;;;26.45;71.78;101852.53;5091218;28;20131;-78
2023/08/22 09:51:20;;;;;;;10.40;6.50;;;;;;;26.62;68.53;101853.94;5073980;28;20028;-79
2023/08/22 09:53:53;;;;;;;11.23;6.65;;;;;;;26.54;70.16;101869.13;5073776;28;20032;-81
2023/08/22 09:56:21;;;;;;;9.32;6.63;;;;;;;26.34;69.97;101859.28;5091252;28;20118;-79
2023/08/22 09:58:47;;;;;;;10.13;5.43;;;;;;;26.32;69.54;101858.72;5091772;28;20102;-81
2023/08/22 10:01:16;;;;;;;11.60;6.63;;;;;;;26.33;71.46;101870.50;5072858;28;20131;-81
2023/08/22 10:03:46;;;;;;;16.02;6.18;;;;;;;26.21;69.49;101859.94;5091567;28;20480;-80
2023/08/22 10:06:12;;;;;;;10.60;5.80;;;;;;;26.28;69.88;101843.94;5091042;28;20036;-80
2023/08/22 10:08:39;;;;;;;14.65;6.35;;;;;;;26.80;67.55;101861.34;5073425;28;20066;-80
2023/08/22 10:11:07;;;;;;;11.35;5.03;;;;;;;27.41;65.14;101854.84;5090236;28;20032;-81
2023/08/22 10:13:33;;;;;;;8.25;4.15;;;;;;;27.67;63.32;101858.75;5090677;28;20052;-80
2023/08/22 10:15:59;;;;;;;6.80;4.15;;;;;;;27.77;61.52;101864.09;5091516;28;20028;-81
2023/08/22 10:18:25;;;;;;;6.28;3.92;;;;;;;27.76;60.03;101861.63;5090723;28;20533;-80
2023/08/22 10:20:52;;;;;;;6.60;4.07;;;;;;;27.62;61.53;101847.06;5073259;28;20043;-80
2023/08/22 10:23:58;;;;;;;9.00;3.70;;;;;;;27.83;63.26;101847.47;5091556;28;20481;-78
2023/08/22 10:26:27;;;;;;;9.40;4.13;;;;;;;27.48;61.48;101846.22;5090465;28;20036;-79
2023/08/22 10:29:16;;;;;;;6.63;3.45;;;;;;;27.50;61.43;101854.97;5091397;28;20479;-79
2023/08/22 10:31:59;;;;;;;7.43;4.00;;;;;;;27.35;61.98;101854.13;5066007;28;20488;-80
2023/08/22 10:34:25;;;;;;;6.88;3.65;;;;;;;26.96;59.67;101849.00;5075989;28;20023;-80
2023/08/22 10:36:59;;;;;;;7.28;4.00;;;;;;;26.77;61.02;101843.53;5094042;28;20373;-81
2023/08/22 10:39:37;;;;;;;12.15;4.13;;;;;;;26.72;63.54;101849.09;5094988;28;20024;-80
2023/08/22 10:42:03;;;;;;;7.43;3.40;;;;;;;26.83;65.21;101847.81;5094664;28;20114;-80
2023/08/22 10:44:30;;;;;;;6.88;3.03;;;;;;;26.93;61.39;101846.88;5094046;28;20044;-80
2023/08/22 10:47:03;;;;;;;5.93;3.00;;;;;;;26.92;59.49;101842.50;5093514;28;20047;-79
2023/08/22 10:49:33;;;;;;;6.47;3.13;;;;;;;26.90;60.49;101843.91;5094019;28;20051;-80
2023/08/22 10:52:07;;;;;;;7.30;3.33;;;;;;;26.86;60.90;101835.44;5076451;28;20024;-78
2023/08/22 10:54:53;;;;;;;4.72;3.03;;;;;;;26.94;61.33;101844.94;5075641;28;20048;-80
2023/08/22 10:57:19;;;;;;;9.32;3.50;;;;;;;27.27;62.01;101837.53;5076038;28;20077;-79
2023/08/22 10:59:59;;;;;;;10.13;3.70;;;;;;;27.52;61.48;101836.25;5094456;28;20031;-79
2023/08/22 11:02:30;;;;;;;5.25;3.08;;;;;;;27.98;62.25;101831.47;5072486;28;20039;-79
2023/08/22 11:05:00;;;;;;;7.88;3.92;;;;;;;28.65;58.61;101839.91;5093133;28;20031;-80
2023/08/22 11:07:27;;;;;;;8.50;3.72;;;;;;;28.78;57.44;101842.91;5093535;28;20514;-78
2023/08/22 11:09:56;;;;;;;7.32;3.78;;;;;;;28.63;57.18;101830.34;5076614;28;20557;-81
2023/08/22 11:12:24;;;;;;;8.50;4.22;;;;;;;28.10;56.05;101841.97;5093586;28;20059;-80
2023/08/22 11:14:51;;;;;;;8.20;3.45;;;;;;;27.86;58.40;101835.88;5094278;28;20495;-80
2023/08/22 11:17:18;;;;;;;7.50;3.45;;;;;;;27.86;60.52;101844.13;5094213;28;20123;-79
2023/08/22 11:19:45;;;;;;;4.75;2.70;;;;;;;27.81;56.90;101856.03;5093345;28;20071;-81
2023/08/22 11:22:10;;;;;;;6.28;2.70;;;;;;;27.83;59.04;101848.28;5075875;28;20036;-80
2023/08/22 11:24:36;;;;;;;3.00;1.92;;;;;;;27.60;57.67;101841.03;5075279;28;20093;-80
2023/08/22 11:27:05;;;;;;;5.90;2.05;;;;;;;27.44;54.56;101841.31;5094102;28;20563;-80
2023/08/22 11:29:42;;;;;;;5.20;1.98;;;;;;;27.14;55.77;101850.09;5094065;28;20115;-79
2023/08/22 11:32:21;;;;;;;4.68;1.60;;;;;;;27.12;55.41;101847.66;5093274;28;20066;-81
2023/08/22 11:34:47;;;;;;;3.05;1.40;;;;;;;27.05;55.95;101847.22;5093925;28;20374;-80
2023/08/22 11:37:13;;;;;;;3.65;1.80;;;;;;;27.04;56.33;101853.03;5093299;28;20445;-80
2023/08/22 11:39:38;;;;;;;4.65;1.50;;;;;;;26.89;54.08;101865.06;5094017;28;20031;-80
2023/08/22 11:42:04;;;;;;;3.58;1.70;;;;;;;26.65;55.74;101862.41;5093024;28;20023;-80
2023/08/22 11:47:57;;;;;;;5.82;1.83;;;;;;;26.42;56.19;101855.88;5094017;28;20047;-80
2023/08/22 11:50:29;;;;;;;2.97;1.73;;;;;;;26.43;57.97;101859.41;5091697;28;20063;-80
2023/08/22 11:52:54;;;;;;;;;;;;;;;26.66;57.63;101861.28;5094267;28;20028;-80
2023/08/22 11:55:28;;;;;;;9.32;2.03;;;;;;;26.46;56.85;101853.34;5092999;28;19920;-81
2023/08/22 11:57:55;;;;;;;4.00;2.00;;;;;;;26.35;57.68;101852.69;5093721;28;20468;-80
2023/08/22 12:00:21;;;;;;;4.45;1.88;;;;;;;26.41;60.51;101850.69;5092764;28;20159;-80
2023/08/22 12:02:50;;;;;;;5.13;1.80;;;;;;;26.40;60.66;101840.81;5075336;28;20024;-80
2023/08/22 12:08:37;;;;;;;5.35;2.10;;;;;;;26.56;60.99;101864.16;5093589;28;20058;-81
2023/08/22 12:11:03;;;;;;;4.25;2.25;;;;;;;26.66;60.09;101855.78;5093426;28;20028;-79
2023/08/22 12:13:29;;;;;;;4.72;2.28;;;;;;;26.65;62.86;101856.91;5092544;28;20042;-80
2023/08/22 12:15:54;;;;;;;4.72;2.15;;;;;;;26.76;59.96;101866.59;5093348;28;20028;-80
2023/08/22 12:18:28;;;;;;;3.75;2.10;;;;;;;26.70;61.90;101862.31;5074506;28;20408;-80
2023/08/22 12:20:53;;;;;;;4.65;2.42;;;;;;;26.62;60.97;101863.00;5093227;28;20024;-79
2023/08/22 12:23:19;;;;;;;4.57;2.33;;;;;;;26.73;60.38;101858.97;5092911;28;20085;-81
2023/08/22 12:25:44;;;;;;;7.00;2.67;;;;;;;27.03;59.05;101854.94;5092893;28;20040;-80
2023/08/22 12:28:10;;;;;;;7.17;2.87;;;;;;;27.35;58.11;101856.03;5093125;28;20316;-80
2023/08/22 12:30:37;;;;;;;9.68;3.90;;;;;;;27.32;59.36;101851.16;5092303;28;20376;-80
2023/08/22 12:33:04;;;;;;;5.32;2.75;;;;;;;27.17;60.68;101852.22;5074899;28;20043;-80
2023/08/22 12:35:31;;;;;;;10.35;3.97;;;;;;;27.01;59.34;101857.19;5092025;28;20076;-79
2023/08/22 12:37:57;;;;;;;6.28;2.47;;;;;;;27.06;61.23;101864.53;5092886;28;20043;-79
2023/08/22 12:40:22;;;;;;;4.80;2.55;;;;;;;26.99;61.84;101858.59;5092751;28;20032;-80
2023/08/22 12:42:48;;;;;;;5.78;2.80;;;;;;;26.93;61.61;101849.59;5090911;28;20400;-80
2023/08/22 12:45:13;;;;;;;3.95;2.58;;;;;;;26.89;61.79;101856.81;5074548;28;20031;-79
2023/08/22 12:47:39;;;;;;;6.33;3.30;;;;;;;26.81;60.42;101862.97;5092045;28;20040;-80
2023/08/22 12:50:08;;;;;;;6.70;2.70;;;;;;;26.62;63.10;101863.00;5092722;28;20476;-80
2023/08/22 12:52:34;;;;;;;4.28;2.80;;;;;;;26.58;65.39;101859.19;5092684;28;20044;-80
2023/08/22 12:55:00;;;;;;;7.30;3.03;;;;;;;26.63;64.44;101861.88;5091764;28;20123;-80
2023/08/22 12:57:26;;;;;;;7.50;3.72;;;;;;;26.43;64.52;101856.69;5073687;28;20024;-79